Time;durP1;ratioP1;P1;durP2;ratioP2;P2;SDS_P1;SDS_P2;PMS_P1;PMS_P2;Temp;Humidity;BMP_temperature;BMP_pressure;BME280_temperature;BME280_humidity;BME280_pressure;Samples;Min_cycle;Max_cycle;Signal;HPM_P1;HPM_P2
2021/12/08 00:02:51;;;;;;;9.43;1.75;;;;;;;12.19;51.22;96587.06;3979174;32;15024454;-68
2021/12/08 00:05:20;;;;;;;11.27;1.33;;;;;;;12.04;51.85;96589.75;4430484;32;20068;-67
2021/12/08 00:07:46;;;;;;;10.43;1.85;;;;;;;12.09;52.17;96581.16;4432284;32;20292;-67
2021/12/08 00:10:28;;;;;;;16.10;1.70;;;;;;;11.75;52.56;96594.50;4431905;32;20046;-67
2021/12/08 00:13:02;;;;;;;6.68;0.88;;;;;;;11.77;53.33;96566.56;4431155;32;20142;-68
2021/12/08 00:15:29;;;;;;;9.48;1.48;;;;;;;11.42;53.76;96583.19;4430184;32;20125;-69
2021/12/08 00:17:56;;;;;;;7.90;1.23;;;;;;;11.64;53.78;96582.72;4430371;32;20085;-69
2021/12/08 00:20:23;;;;;;;11.90;1.77;;;;;;;11.50;54.03;96570.72;4430534;32;20037;-69
2021/12/08 00:22:49;;;;;;;6.45;1.25;;;;;;;11.70;53.47;96538.31;4430873;32;20103;-69
2021/12/08 00:25:15;;;;;;;8.65;1.55;;;;;;;11.18;54.75;96578.56;4431671;32;20460;-69
2021/12/08 00:27:40;;;;;;;13.48;1.62;;;;;;;11.25;55.22;96543.38;4432547;32;20080;-69
2021/12/08 00:30:07;;;;;;;5.90;1.50;;;;;;;11.15;55.17;96545.12;4428615;32;20045;-68
2021/12/08 00:32:35;;;;;;;9.93;1.75;;;;;;;11.13;55.67;96554.13;4429142;32;20038;-68
2021/12/08 00:35:00;;;;;;;8.45;1.45;;;;;;;11.48;54.84;96552.88;4431926;32;20037;-68
2021/12/08 00:37:27;;;;;;;13.90;2.47;;;;;;;11.21;55.18;96540.16;4430445;32;20085;-68
2021/12/08 00:39:53;;;;;;;10.23;1.33;;;;;;;11.35;55.17;96547.28;4429549;32;20185;-68
2021/12/08 00:42:20;;;;;;;16.30;1.92;;;;;;;11.45;54.87;96574.41;4431516;32;21151;-68
2021/12/08 00:44:46;;;;;;;18.92;2.03;;;;;;;11.64;54.90;96546.13;4432476;32;20077;-68
2021/12/08 00:47:13;;;;;;;7.22;1.62;;;;;;;11.65;54.68;96561.72;4432178;32;20164;-68
2021/12/08 00:49:39;;;;;;;11.27;1.80;;;;;;;11.69;54.67;96559.34;4429627;32;20864;-69
2021/12/08 00:52:06;;;;;;;14.93;2.12;;;;;;;11.96;53.99;96553.03;4430631;32;20034;-69
2021/12/08 01:13:09;;;;;;;10.20;1.30;;;;;;;12.26;52.46;96577.94;4429608;32;20100;-68
2021/12/08 01:15:37;;;;;;;12.75;1.45;;;;;;;11.92;53.42;96582.84;4414592;32;20399;-68
2021/12/08 01:18:04;;;;;;;14.73;2.15;;;;;;;12.52;51.92;96600.31;4417869;32;20087;-68
2021/12/08 01:20:29;;;;;;;10.65;1.10;;;;;;;12.44;51.63;96595.94;4417687;32;20099;-68
2021/12/08 01:22:55;;;;;;;10.05;2.20;;;;;;;12.09;52.03;96595.25;4420946;32;20094;-68
2021/12/08 01:25:21;;;;;;;7.57;1.33;;;;;;;12.31;51.24;96608.06;4421557;32;20033;-68
2021/12/08 01:27:47;;;;;;;14.70;1.80;;;;;;;12.68;50.44;96613.25;4419100;32;20357;-68
2021/12/08 01:30:13;;;;;;;5.53;1.20;;;;;;;12.60;50.38;96625.78;4416649;32;20046;-67
2021/12/08 01:32:39;;;;;;;12.27;1.58;;;;;;;12.45;50.50;96623.56;4420476;32;20461;-68
2021/12/08 01:35:07;;;;;;;10.25;0.90;;;;;;;12.91;49.81;96633.94;4420364;32;20073;-68
2021/12/08 01:37:34;;;;;;;6.43;1.02;;;;;;;13.11;49.55;96635.22;4415569;32;20534;-68
2021/12/08 01:40:01;;;;;;;11.73;1.70;;;;;;;12.52;50.56;96645.44;4420221;32;20493;-67
2021/12/08 01:42:33;;;;;;;10.55;1.45;;;;;;;12.48;50.83;96624.53;4417488;32;20462;-68
2021/12/08 01:47:44;;;;;;;7.30;1.12;;;;;;;12.81;49.95;96663.19;4416356;32;20539;-68
2021/12/08 01:50:10;;;;;;;8.70;1.20;;;;;;;12.33;50.40;96646.97;4419255;32;20069;-67
2021/12/08 01:52:38;;;;;;;16.02;1.40;;;;;;;12.74;49.98;96664.66;4422541;32;20375;-68
2021/12/08 01:55:06;;;;;;;11.32;1.42;;;;;;;12.82;49.76;96653.44;4420187;32;20095;-68
2021/12/08 01:57:31;;;;;;;10.77;1.80;;;;;;;13.14;49.42;96674.41;4420820;32;20336;-68
2021/12/08 01:59:57;;;;;;;11.45;1.17;;;;;;;13.09;49.34;96668.88;4419583;32;20098;-68
2021/12/08 02:02:23;;;;;;;7.80;1.30;;;;;;;13.05;49.34;96679.78;4420893;32;20439;-68
2021/12/08 02:04:49;;;;;;;5.65;1.12;;;;;;;13.15;49.24;96673.09;4419891;32;20074;-68
2021/12/08 02:07:15;;;;;;;7.90;1.40;;;;;;;13.28;48.94;96670.16;4417294;32;20147;-68
2021/12/08 02:09:43;;;;;;;11.43;0.98;;;;;;;13.19;49.09;96667.84;4417383;32;20136;-68
2021/12/08 02:12:09;;;;;;;12.70;1.30;;;;;;;13.16;49.03;96683.06;4418600;32;21221;-68
2021/12/08 02:14:35;;;;;;;8.45;1.62;;;;;;;13.47;48.77;96676.28;4419456;32;20537;-68
2021/12/08 02:17:01;;;;;;;9.73;1.25;;;;;;;13.40;48.80;96670.59;4421775;32;20070;-68
2021/12/08 02:19:27;;;;;;;12.95;1.50;;;;;;;13.62;48.72;96684.84;4421798;32;20074;-69
2021/12/08 02:21:53;;;;;;;9.18;1.55;;;;;;;13.07;49.64;96675.06;4421238;32;20438;-68
2021/12/08 02:24:21;;;;;;;10.25;1.55;;;;;;;12.80;50.27;96676.53;4419134;32;20470;-68
2021/12/08 02:26:50;;;;;;;4.82;1.25;;;;;;;12.85;50.34;96678.44;4419935;32;20110;-68
2021/12/08 02:29:30;;;;;;;9.00;1.35;;;;;;;12.89;50.53;96678.13;4417550;32;20399;-68
2021/12/08 02:32:04;;;;;;;9.77;1.37;;;;;;;13.15;50.00;96678.72;4419599;32;20562;-68
2021/12/08 02:48:19;;;;;;;;;;;;;;;12.30;50.82;96691.06;4413223;32;20149;-68
2021/12/08 02:50:45;;;;;;;3.20;0.57;;;;;;;12.54;49.96;96702.03;4418269;32;19995;-68
2021/12/08 02:53:13;;;;;;;6.82;0.52;;;;;;;11.81;51.67;96696.50;4418087;32;20334;-68
2021/12/08 02:55:40;;;;;;;8.05;0.70;;;;;;;12.59;50.44;96701.16;4418000;32;20053;-68
2021/12/08 02:58:06;;;;;;;5.30;0.37;;;;;;;12.43;50.73;96710.78;4422066;32;20063;-69
2021/12/08 03:00:37;;;;;;;1.08;0.20;;;;;;;11.78;51.88;96706.06;4419211;32;20070;-69
2021/12/08 03:03:05;;;;;;;8.95;0.90;;;;;;;11.95;51.81;96711.34;4417022;32;20068;-69
2021/12/08 03:05:32;;;;;;;4.93;0.50;;;;;;;12.03;51.70;96715.75;4418353;32;20081;-69
2021/12/08 03:07:59;;;;;;;4.12;0.68;;;;;;;11.97;51.73;96705.94;4420559;32;20101;-69
2021/12/08 03:10:30;;;;;;;2.85;0.50;;;;;;;11.97;51.87;96725.66;4415351;32;20038;-69
2021/12/08 03:12:56;;;;;;;2.95;0.37;;;;;;;11.80;52.21;96699.88;4417673;32;20089;-70
2021/12/08 03:15:22;;;;;;;3.87;0.60;;;;;;;11.59;52.34;96730.72;4418275;32;20084;-70
2021/12/08 03:17:48;;;;;;;2.85;0.40;;;;;;;11.91;52.14;96725.00;4419650;32;20125;-70
2021/12/08 03:20:22;;;;;;;3.15;0.47;;;;;;;11.63;52.03;96724.81;4415310;32;20097;-70
2021/12/08 03:22:50;;;;;;;0.98;0.28;;;;;;;11.69;52.05;96719.84;4417243;32;20082;-70
2021/12/08 03:25:20;;;;;;;1.90;0.20;;;;;;;11.68;51.91;96733.13;4419252;32;20049;-70
2021/12/08 03:27:53;;;;;;;2.60;0.47;;;;;;;11.23;52.79;96740.88;4422149;32;20147;-69
2021/12/08 03:30:28;;;;;;;1.17;0.40;;;;;;;11.43;52.36;96733.88;4419367;32;20060;-69
2021/12/08 03:32:57;;;;;;;3.45;0.60;;;;;;;11.78;51.82;96725.00;4419172;32;20078;-68
2021/12/08 03:35:24;;;;;;;2.62;0.60;;;;;;;11.58;51.98;96725.66;4417116;32;20516;-68
2021/12/08 03:37:51;;;;;;;1.33;0.45;;;;;;;11.81;51.71;96719.03;4417639;32;20406;-68
2021/12/08 03:40:21;;;;;;;1.80;0.40;;;;;;;11.38;52.35;96720.66;4415925;32;20053;-68
2021/12/08 03:42:49;;;;;;;2.05;0.60;;;;;;;11.57;51.82;96733.31;4418138;32;20077;-69
2021/12/08 03:45:22;;;;;;;1.95;0.73;;;;;;;11.83;51.38;96733.34;4419199;32;20521;-68
2021/12/08 03:47:58;;;;;;;1.87;0.68;;;;;;;11.50;51.56;96728.34;4416892;32;20418;-68
2021/12/08 03:50:24;;;;;;;1.42;0.47;;;;;;;11.76;51.28;96730.44;4418605;32;20050;-68
2021/12/08 03:52:51;;;;;;;3.65;0.80;;;;;;;11.47;51.56;96740.69;4415538;32;20427;-69
2021/12/08 03:55:18;;;;;;;1.75;0.70;;;;;;;11.25;52.33;96732.66;4419116;32;20100;-69
2021/12/08 03:57:44;;;;;;;3.22;0.68;;;;;;;11.57;51.86;96730.50;4419124;32;20375;-69
2021/12/08 04:00:15;;;;;;;2.83;0.60;;;;;;;11.66;51.51;96730.09;4416319;32;20034;-69
2021/12/08 04:02:41;;;;;;;3.05;1.10;;;;;;;11.48;52.36;96745.00;4417229;32;20103;-69
2021/12/08 04:05:09;;;;;;;2.42;0.62;;;;;;;11.53;52.06;96732.91;4413888;32;20084;-68
2021/12/08 04:07:42;;;;;;;3.85;0.82;;;;;;;11.75;51.57;96735.28;4418493;32;20101;-68
2021/12/08 04:10:16;;;;;;;2.30;1.08;;;;;;;11.90;51.31;96721.41;4417724;32;20046;-69
2021/12/08 04:12:43;;;;;;;2.70;1.00;;;;;;;11.91;51.37;96736.28;4415750;32;20750;-68
2021/12/08 04:15:10;;;;;;;5.75;1.25;;;;;;;11.94;51.50;96726.72;4420425;32;20707;-69
2021/12/08 04:17:40;;;;;;;3.85;1.33;;;;;;;12.09;51.55;96721.28;4420121;32;20079;-69
2021/12/08 04:20:13;;;;;;;6.45;1.45;;;;;;;12.24;51.18;96720.69;4419708;32;20074;-68
2021/12/08 04:22:49;;;;;;;6.12;1.58;;;;;;;12.34;50.66;96727.38;4419577;32;20042;-68
2021/12/08 04:25:18;;;;;;;2.55;0.60;;;;;;;12.65;50.02;96703.84;4417376;32;20085;-68
2021/12/08 04:27:50;;;;;;;2.00;0.57;;;;;;;12.36;50.50;96719.16;4419897;32;20086;-68
2021/12/08 04:30:23;;;;;;;5.80;0.77;;;;;;;12.18;50.95;96723.63;4418451;32;20093;-67
2021/12/08 04:32:49;;;;;;;3.95;0.45;;;;;;;12.40;50.37;96713.94;4415241;32;20034;-67
2021/12/08 04:35:17;;;;;;;2.37;0.60;;;;;;;12.68;49.71;96714.03;4419607;32;20053;-67
2021/12/08 04:37:48;;;;;;;4.18;0.57;;;;;;;12.94;49.08;96717.47;4417208;32;20033;-67
2021/12/08 04:40:36;;;;;;;4.95;0.70;;;;;;;12.55;49.81;96728.94;4416428;32;20069;-68
2021/12/08 04:46:03;;;;;;;2.05;0.68;;;;;;;13.71;47.30;96720.31;3980765;32;15024550;-67
2021/12/08 04:51:35;;;;;;;2.03;0.50;;;;;;;13.25;48.28;96724.13;3984657;32;15024190;-68
2021/12/08 05:00:17;;;;;;;5.37;1.08;;;;;;;12.81;48.93;96719.59;4431336;32;20050;-67
2021/12/08 05:05:04;;;;;;;8.23;0.50;;;;;;;12.73;48.35;96715.97;3978074;32;15024741;-66
2021/12/08 05:07:47;;;;;;;5.68;0.80;;;;;;;12.31;49.27;96715.16;4434546;32;20049;-66
2021/12/08 05:10:18;;;;;;;5.32;0.82;;;;;;;12.49;49.14;96728.28;4426469;32;20411;-67
2021/12/08 05:12:49;;;;;;;8.20;1.10;;;;;;;12.86;48.53;96713.06;4433769;32;20514;-68
2021/12/08 05:15:21;;;;;;;7.93;0.90;;;;;;;12.65;48.55;96724.34;4434187;32;20025;-67
2021/12/08 05:20:37;;;;;;;6.85;0.93;;;;;;;13.46;47.62;96725.63;3993079;31;15018489;-66
2021/12/08 05:23:10;;;;;;;6.62;1.17;;;;;;;13.46;47.62;96725.63;4458525;32;20048;-66
2021/12/08 05:25:37;;;;;;;6.45;0.88;;;;;;;12.86;48.87;96708.16;4451749;32;20077;-66
2021/12/08 05:28:12;;;;;;;6.72;1.00;;;;;;;12.72;49.93;96695.44;4452554;32;20068;-66
2021/12/08 05:30:46;;;;;;;7.82;0.85;;;;;;;12.56;50.04;96690.97;4439951;32;20116;-66
2021/12/08 05:33:12;;;;;;;10.07;1.23;;;;;;;12.38;50.86;96686.28;4454549;32;20032;-66
2021/12/08 05:35:42;;;;;;;6.90;1.30;;;;;;;11.92;52.37;96703.97;4456468;32;20131;-67
2021/12/08 05:38:08;;;;;;;5.18;0.70;;;;;;;11.97;52.42;96691.84;4454538;32;20056;-67
2021/12/08 05:43:17;;;;;;;8.85;1.05;;;;;;;12.28;52.04;96685.25;4000334;31;15017756;-67
2021/12/08 05:45:43;;;;;;;4.60;1.02;;;;;;;12.28;52.04;96685.25;4457817;32;20168;-68
2021/12/08 05:48:11;;;;;;;8.80;0.90;;;;;;;11.41;53.72;96691.41;4463002;32;20085;-66
2021/12/08 05:53:13;;;;;;;7.50;1.35;;;;;;;12.13;52.49;96673.03;3954186;32;15723286;-67
2021/12/08 05:55:41;;;;;;;8.88;1.00;;;;;;;12.13;52.49;96673.03;4430573;32;20068;-67
2021/12/08 05:58:08;;;;;;;4.78;0.73;;;;;;;12.04;52.62;96675.03;4433085;32;20451;-67
2021/12/08 06:03:22;;;;;;;3.87;0.88;;;;;;;12.35;51.98;96682.41;3982427;32;15021797;-66
2021/12/08 06:05:51;;;;;;;7.50;0.60;;;;;;;12.38;52.04;96685.50;4433515;32;20423;-66
2021/12/08 06:08:18;;;;;;;7.97;0.95;;;;;;;11.92;52.98;96682.22;4433316;32;20092;-66
2021/12/08 06:10:45;;;;;;;3.87;0.57;;;;;;;11.87;53.05;96705.59;4433744;32;20122;-66
2021/12/08 06:13:13;;;;;;;4.70;0.75;;;;;;;11.82;52.93;96677.56;4434464;32;20231;-66
2021/12/08 06:15:41;;;;;;;3.87;0.45;;;;;;;12.17;52.60;96705.22;4432472;32;20033;-66
2021/12/08 06:18:08;;;;;;;3.33;0.50;;;;;;;11.72;53.01;96715.94;4434538;32;20081;-66
2021/12/08 06:20:36;;;;;;;4.55;0.62;;;;;;;12.10;51.91;96717.91;4435884;32;20041;-66
2021/12/08 06:23:05;;;;;;;2.78;0.47;;;;;;;12.09;51.89;96733.31;4437779;32;20065;-66
2021/12/08 06:25:31;;;;;;;8.00;0.68;;;;;;;11.82;52.54;96729.00;4432658;32;20045;-66
2021/12/08 06:27:57;;;;;;;3.12;0.28;;;;;;;11.69;52.94;96740.28;4437588;32;20149;-66
2021/12/08 06:30:27;;;;;;;6.75;0.85;;;;;;;11.95;51.90;96747.97;4435465;32;20064;-66
2021/12/08 06:32:54;;;;;;;4.97;0.70;;;;;;;12.16;51.57;96759.28;4436945;32;20061;-66
2021/12/08 06:35:28;;;;;;;5.57;0.60;;;;;;;12.33;51.19;96762.53;4433696;32;20068;-66
2021/12/08 06:37:56;;;;;;;4.75;0.47;;;;;;;12.46;50.96;96766.06;4434834;32;20429;-66
2021/12/08 06:40:32;;;;;;;0.70;0.30;;;;;;;12.40;50.45;96779.53;4434152;32;20046;-66
2021/12/08 06:43:01;;;;;;;2.78;0.30;;;;;;;12.30;50.51;96778.44;4434385;32;20041;-66
2021/12/08 06:45:34;;;;;;;4.72;0.93;;;;;;;12.22;50.53;96768.38;4430283;32;20103;-66
2021/12/08 06:48:03;;;;;;;1.55;0.15;;;;;;;12.19;50.52;96763.84;4435224;32;20086;-67
2021/12/08 06:50:38;;;;;;;1.85;0.20;;;;;;;11.39;51.73;96772.84;4437607;32;20088;-66
2021/12/08 06:53:04;;;;;;;0.40;0.17;;;;;;;11.69;51.12;96756.44;4434355;32;20100;-66
2021/12/08 06:55:35;;;;;;;3.53;0.20;;;;;;;11.77;50.26;96762.91;4437268;32;20021;-66
2021/12/08 06:58:06;;;;;;;0.55;0.20;;;;;;;11.86;50.19;96779.38;4436329;32;20103;-66
2021/12/08 07:01:16;;;;;;;3.58;0.10;;;;;;;11.68;50.85;96766.94;4432605;32;20045;-66
2021/12/08 07:03:37;;;;;;;1.55;0.30;;;;;;;11.87;50.38;96778.84;4436766;32;20129;-66
2021/12/08 07:06:29;;;;;;;3.75;0.30;;;;;;;11.85;50.33;96787.06;4434987;32;20054;-66
2021/12/08 07:08:56;;;;;;;1.52;0.20;;;;;;;11.97;50.14;96796.06;4430087;32;20145;-66
2021/12/08 07:11:25;;;;;;;1.27;0.10;;;;;;;11.54;50.84;96806.84;4431361;32;20535;-66
2021/12/08 07:13:53;;;;;;;2.45;0.37;;;;;;;11.27;51.52;96824.97;4428247;32;20449;-66
2021/12/08 07:16:23;;;;;;;1.98;0.32;;;;;;;11.75;50.90;96819.00;4424802;32;20194;-66
2021/12/08 07:19:00;;;;;;;1.65;0.25;;;;;;;11.52;50.95;96824.28;4420941;32;20509;-66
2021/12/08 07:21:32;;;;;;;0.80;0.17;;;;;;;11.32;51.56;96816.44;4425757;32;20514;-67
2021/12/08 07:24:05;;;;;;;2.08;0.22;;;;;;;10.88;52.28;96805.94;4425938;32;20131;-66
2021/12/08 07:26:34;;;;;;;0.10;0.00;;;;;;;10.85;52.74;96826.69;4421771;32;20491;-68
2021/12/08 07:29:01;;;;;;;1.60;0.30;;;;;;;11.07;52.51;96829.13;4417420;32;20447;-68
2021/12/08 07:34:09;;;;;;;0.62;0.00;;;;;;;11.25;52.26;96833.19;3993953;31;15015183;-68
2021/12/08 07:36:40;;;;;;;1.67;0.17;;;;;;;11.25;52.26;96833.19;4444252;32;20041;-68
2021/12/08 07:39:10;;;;;;;0.85;0.25;;;;;;;11.58;51.57;96824.19;4444692;32;20204;-68
2021/12/08 07:41:40;;;;;;;0.60;0.40;;;;;;;11.48;51.98;96837.16;4443786;32;20106;-69
2021/12/08 07:44:11;;;;;;;1.95;0.30;;;;;;;11.72;51.42;96853.91;4442166;32;20105;-70
2021/12/08 07:46:46;;;;;;;1.02;0.20;;;;;;;11.33;51.89;96848.16;4442608;32;20408;-70
2021/12/08 07:49:24;;;;;;;;;;;;;;;11.54;51.55;96835.75;4440875;32;20421;-70
2021/12/08 07:51:57;;;;;;;1.08;0.30;;;;;;;11.90;50.66;96839.72;4437079;32;20061;-70
2021/12/08 07:54:25;;;;;;;3.75;0.30;;;;;;;11.97;51.16;96852.41;4436997;32;20753;-70
2021/12/08 07:56:54;;;;;;;0.70;0.20;;;;;;;11.47;51.95;96855.31;4436940;32;20089;-70
2021/12/08 07:59:21;;;;;;;0.80;0.47;;;;;;;12.03;50.89;96851.00;4434273;32;20131;-70
2021/12/08 08:01:50;;;;;;;0.40;0.30;;;;;;;12.14;50.66;96855.66;4436739;32;20215;-70
2021/12/08 08:04:22;;;;;;;0.60;0.30;;;;;;;11.86;50.52;96791.41;4440197;32;20077;-70
2021/12/08 08:06:51;;;;;;;2.78;0.70;;;;;;;12.39;50.25;96868.19;4437859;32;20384;-70
2021/12/08 08:09:24;;;;;;;0.55;0.30;;;;;;;12.14;50.82;96878.19;4435774;32;20036;-70
2021/12/08 08:11:57;;;;;;;1.55;0.50;;;;;;;12.11;50.81;96884.91;4435581;32;20061;-71
2021/12/08 08:14:28;;;;;;;1.42;0.40;;;;;;;12.20;51.06;96881.66;4437398;32;20104;-71
2021/12/08 08:16:57;;;;;;;1.35;0.50;;;;;;;12.32;50.69;96885.78;4434973;32;20513;-70
2021/12/08 08:19:28;;;;;;;1.85;0.50;;;;;;;12.29;51.44;96903.78;4437770;32;20076;-71
2021/12/08 08:22:00;;;;;;;0.62;0.40;;;;;;;12.38;51.18;96902.56;4435666;32;20486;-70
2021/12/08 08:24:26;;;;;;;3.33;0.45;;;;;;;12.13;51.37;96916.88;4437655;32;20443;-70
2021/12/08 08:26:55;;;;;;;1.92;0.40;;;;;;;12.04;51.30;96920.13;4440321;32;20033;-70
2021/12/08 08:29:21;;;;;;;2.25;0.52;;;;;;;12.40;51.34;96922.53;4440421;32;20095;-71
2021/12/08 08:31:59;;;;;;;3.30;0.75;;;;;;;12.27;52.74;96934.56;4436582;32;20083;-70
2021/12/08 08:34:27;;;;;;;3.03;0.60;;;;;;;11.98;53.34;96933.56;4437530;32;20064;-70
2021/12/08 08:36:53;;;;;;;6.10;1.35;;;;;;;11.96;54.53;96926.94;4438018;32;20478;-70
2021/12/08 08:39:24;;;;;;;2.00;0.70;;;;;;;11.75;54.57;96923.22;4438086;32;20068;-70
2021/12/08 08:41:59;;;;;;;1.40;0.80;;;;;;;11.76;54.07;96925.50;4442503;32;20218;-70
2021/12/08 08:44:31;;;;;;;3.75;0.60;;;;;;;12.05;53.89;96926.50;4429134;32;20548;-70
2021/12/08 08:47:05;;;;;;;5.22;1.30;;;;;;;12.21;54.41;96921.87;4430847;32;20074;-69
2021/12/08 08:49:36;;;;;;;5.20;0.80;;;;;;;12.33;54.02;96929.56;4426882;32;20441;-70
2021/12/08 08:52:11;;;;;;;2.40;1.08;;;;;;;12.49;54.20;96939.00;4429988;32;20059;-70
2021/12/08 08:54:42;;;;;;;3.12;1.80;;;;;;;12.57;53.16;96954.72;4425301;32;20351;-71
2021/12/08 08:57:12;;;;;;;2.05;0.43;;;;;;;12.82;53.65;96966.56;4427063;32;20353;-70
2021/12/08 08:59:45;;;;;;;5.72;1.60;;;;;;;12.71;53.38;96978.81;4427797;32;20059;-70
2021/12/08 09:02:17;;;;;;;3.10;1.00;;;;;;;12.52;54.03;96978.16;4427953;32;20436;-69
2021/12/08 09:04:50;;;;;;;6.82;1.23;;;;;;;12.75;54.32;96979.25;4429265;32;20108;-70
2021/12/08 09:07:23;;;;;;;3.10;1.30;;;;;;;12.32;54.52;96975.97;4430852;32;20077;-70
2021/12/08 09:09:52;;;;;;;3.33;1.10;;;;;;;12.35;54.57;96991.81;4426011;32;20057;-70
2021/12/08 09:15:04;;;;;;;4.70;1.50;;;;;;;13.07;53.75;97002.44;3945951;32;15725557;-69
2021/12/08 09:17:35;;;;;;;9.75;2.50;;;;;;;13.07;53.75;97002.44;4423581;32;20581;-71
2021/12/08 09:22:59;;;;;;;12.43;2.40;;;;;;;13.35;52.55;97013.87;3956872;32;15043473;-71
2021/12/08 09:25:47;;;;;;;5.95;1.60;;;;;;;13.35;52.55;97013.87;4405808;32;20498;-69
2021/12/08 09:28:18;;;;;;;6.15;1.05;;;;;;;12.75;52.27;97009.50;4403378;32;20086;-69
2021/12/08 09:30:56;;;;;;;3.70;1.15;;;;;;;12.81;52.13;97019.38;4403118;32;20537;-70
2021/12/08 09:33:27;;;;;;;2.87;0.90;;;;;;;12.67;52.23;97022.75;4406097;32;20403;-70
2021/12/08 09:35:59;;;;;;;3.25;1.10;;;;;;;12.66;52.42;97038.91;4406750;32;20084;-70
2021/12/08 09:38:33;;;;;;;3.45;1.00;;;;;;;12.86;52.13;97034.69;4404184;32;20034;-70
2021/12/08 09:41:06;;;;;;;3.80;0.98;;;;;;;12.97;52.09;97054.97;4400311;32;20144;-70
2021/12/08 09:43:40;;;;;;;7.45;0.85;;;;;;;13.26;51.27;97053.88;4407297;32;20486;-70
2021/12/08 09:46:14;;;;;;;5.53;1.30;;;;;;;13.28;51.21;97048.44;4400746;32;20088;-71
2021/12/08 09:48:42;;;;;;;3.33;0.62;;;;;;;13.64;51.13;97043.81;4403938;32;20550;-69
2021/12/08 09:51:09;;;;;;;2.45;0.80;;;;;;;13.30;51.12;97051.50;4404289;32;20041;-69
2021/12/08 09:53:35;;;;;;;5.65;1.52;;;;;;;13.40;51.33;97043.31;4407051;32;20038;-70
2021/12/08 09:56:03;;;;;;;2.85;1.08;;;;;;;13.48;50.91;97044.94;4406378;32;20100;-69
2021/12/08 09:58:29;;;;;;;7.43;1.60;;;;;;;13.63;50.49;97042.25;4407812;32;20373;-70
2021/12/08 10:00:59;;;;;;;7.15;1.42;;;;;;;13.66;50.62;97063.78;4404673;32;20101;-69
2021/12/08 10:03:26;;;;;;;4.55;1.52;;;;;;;13.87;50.24;97069.50;4406762;32;20050;-70
2021/12/08 10:05:52;;;;;;;6.12;1.55;;;;;;;13.57;50.60;97069.88;4406528;32;20038;-70
2021/12/08 10:08:19;;;;;;;10.38;2.10;;;;;;;13.60;49.97;97074.44;4406831;32;20061;-70
2021/12/08 10:10:46;;;;;;;10.60;1.90;;;;;;;13.42;50.80;97075.38;4405863;32;20663;-70
2021/12/08 10:13:14;;;;;;;8.30;2.70;;;;;;;13.29;51.12;97080.28;4409116;32;20066;-71
2021/12/08 10:15:40;;;;;;;13.13;2.40;;;;;;;13.51;50.76;97060.78;4403267;32;20383;-70
2021/12/08 10:18:07;;;;;;;10.10;1.90;;;;;;;13.46;50.33;97075.78;4406437;32;20100;-69
2021/12/08 10:20:38;;;;;;;13.35;2.47;;;;;;;13.02;51.04;97078.75;4403227;32;20038;-69
2021/12/08 10:31:17;;;;;;;8.30;2.78;;;;;;;14.01;50.02;97108.44;3973925;32;15021446;-69
2021/12/08 10:34:11;;;;;;;3.72;1.30;;;;;;;14.01;50.02;97108.44;4427859;32;20561;-69
2021/12/08 10:42:31;;;;;;;6.05;2.05;;;;;;;14.57;50.01;97124.84;3990866;31;15015153;-70
2021/12/08 10:45:10;;;;;;;5.07;1.37;;;;;;;14.57;50.01;97124.84;4444129;32;20418;-69
2021/12/08 10:47:47;;;;;;;7.93;2.15;;;;;;;13.42;51.54;97125.44;4440802;32;20151;-70
2021/12/08 10:55:40;;;;;;;7.47;2.53;;;;;;;13.76;50.37;97146.78;4441242;32;20095;-70
2021/12/08 10:58:07;;;;;;;4.85;2.28;;;;;;;13.56;51.11;97138.97;4442622;32;20041;-69
2021/12/08 11:00:37;;;;;;;6.53;2.50;;;;;;;12.87;52.45;97177.25;4440910;32;20041;-69
2021/12/08 11:03:07;;;;;;;5.85;2.17;;;;;;;13.49;51.68;97136.06;4442781;32;20416;-68
2021/12/08 11:10:55;;;;;;;1.25;0.70;;;;;;;13.81;50.34;97133.84;3976747;32;15023548;-69
2021/12/08 11:13:24;;;;;;;1.80;1.20;;;;;;;13.28;51.56;97140.84;4430366;32;20084;-69
2021/12/08 11:16:04;;;;;;;3.70;0.90;;;;;;;13.32;51.41;97155.41;4426781;32;20414;-70
2021/12/08 11:18:38;;;;;;;5.45;1.25;;;;;;;13.66;50.93;97142.13;4426970;32;20061;-69
2021/12/08 11:21:29;;;;;;;3.62;1.02;;;;;;;13.54;51.62;97154.97;4429472;32;20041;-69
2021/12/08 11:23:57;;;;;;;6.70;1.55;;;;;;;13.63;51.42;97143.22;4424623;32;20340;-69
2021/12/08 11:31:46;;;;;;;2.87;0.90;;;;;;;13.57;50.85;97194.16;3970126;32;15050575;-69
2021/12/08 11:34:19;;;;;;;1.90;0.60;;;;;;;13.57;50.85;97194.16;4426789;32;20144;-68
2021/12/08 11:36:50;;;;;;;2.10;1.23;;;;;;;13.20;51.09;97199.28;4420299;32;20157;-69
2021/12/08 11:39:20;;;;;;;3.40;1.23;;;;;;;12.76;52.28;97174.66;4422176;32;20397;-69
2021/12/08 11:41:50;;;;;;;2.90;0.60;;;;;;;12.65;52.72;97183.28;4424796;32;20085;-69
2021/12/08 11:44:19;;;;;;;1.45;0.47;;;;;;;12.80;51.92;97175.09;4424350;32;20102;-69
2021/12/08 11:46:52;;;;;;;3.75;0.65;;;;;;;12.52;52.96;97203.72;4409053;32;20112;-69
2021/12/08 11:49:19;;;;;;;2.92;0.88;;;;;;;12.89;52.71;97217.72;4424209;32;20465;-69
2021/12/08 11:55:00;;;;;;;5.20;1.55;;;;;;;13.63;51.40;97220.22;3973905;32;15034797;-68
2021/12/08 11:57:35;;;;;;;6.97;2.13;;;;;;;13.63;51.40;97220.22;4431158;32;20068;-68
2021/12/08 12:02:43;;;;;;;10.70;1.98;;;;;;;14.01;51.54;97212.25;3961936;31;15706594;-68
2021/12/08 12:05:13;;;;;;;7.05;2.17;;;;;;;14.01;51.54;97212.25;4439634;32;20506;-68
2021/12/08 12:07:39;;;;;;;5.65;1.50;;;;;;;14.25;50.45;97211.25;4438107;32;20744;-67
2021/12/08 12:10:08;;;;;;;5.65;1.42;;;;;;;13.51;50.67;97216.12;4439027;32;20096;-68
2021/12/08 12:12:37;;;;;;;3.50;1.00;;;;;;;14.08;49.51;97254.00;4440344;32;20561;-68
2021/12/08 12:15:05;;;;;;;5.40;1.20;;;;;;;13.49;49.81;97249.03;4426105;32;20084;-68
2021/12/08 12:17:33;;;;;;;2.97;1.17;;;;;;;13.51;50.01;97264.16;4439419;32;20084;-68
2021/12/08 12:25:49;;;;;;;5.78;1.35;;;;;;;14.46;47.12;97263.75;3972778;32;15030880;-68
2021/12/08 12:31:26;;;;;;;5.95;1.42;;;;;;;14.45;46.39;97241.66;3987547;31;15017481;-68
2021/12/08 12:33:54;;;;;;;6.30;1.92;;;;;;;14.45;46.39;97241.66;4435539;32;20080;-68
2021/12/08 12:36:26;;;;;;;7.68;1.60;;;;;;;13.95;48.32;97263.28;4448544;32;20045;-68
2021/12/08 12:38:52;;;;;;;6.12;1.65;;;;;;;13.83;48.72;97278.16;4446629;32;20075;-68
2021/12/08 12:41:25;;;;;;;6.90;1.70;;;;;;;13.45;49.08;97290.97;4449721;32;20107;-68
2021/12/08 12:43:51;;;;;;;5.03;1.70;;;;;;;13.88;49.27;97280.87;4447475;32;20344;-68
2021/12/08 12:46:18;;;;;;;6.62;1.92;;;;;;;13.54;49.55;97293.38;4445479;32;20045;-68
2021/12/08 12:48:51;;;;;;;8.38;2.25;;;;;;;13.31;49.43;97284.53;4444972;32;20136;-68
2021/12/08 12:51:19;;;;;;;6.50;1.90;;;;;;;13.64;49.34;97322.69;4445210;32;20081;-68
2021/12/08 12:59:17;;;;;;;3.85;1.55;;;;;;;14.93;45.59;97304.06;3983813;32;15029780;-68
2021/12/08 13:01:46;;;;;;;2.37;1.20;;;;;;;14.53;47.08;97302.69;4432274;32;20102;-67
2021/12/08 13:04:20;;;;;;;2.58;1.15;;;;;;;14.45;46.75;97306.72;4439586;32;20118;-67
2021/12/08 13:06:49;;;;;;;2.47;1.00;;;;;;;14.99;46.26;97313.19;4436182;32;20105;-67
2021/12/08 13:20:43;;;;;;;2.78;1.12;;;;;;;13.78;48.00;97366.63;3983060;31;15015883;-68
2021/12/08 13:23:12;;;;;;;5.00;1.30;;;;;;;13.78;48.00;97366.63;4434449;32;20335;-69
2021/12/08 13:41:39;;;;;;;1.85;1.40;;;;;;;13.24;49.30;97394.50;3974388;32;15021868;-69
2021/12/08 13:44:24;;;;;;;3.92;1.05;;;;;;;13.24;49.30;97394.50;4422934;32;20115;-70
2021/12/08 13:46:54;;;;;;;2.08;0.93;;;;;;;13.01;49.31;97391.25;4423670;32;20057;-70
2021/12/08 13:49:41;;;;;;;2.95;0.60;;;;;;;12.88;50.04;97418.59;4407295;32;20558;-70
2021/12/08 14:08:13;;;;;;;3.15;0.30;;;;;;;13.17;49.73;97432.59;3970018;32;15023006;-68
2021/12/08 14:10:43;;;;;;;0.50;0.20;;;;;;;13.17;49.73;97432.59;4427755;32;20091;-68
2021/12/08 14:15:48;;;;;;;2.70;0.50;;;;;;;13.90;47.89;97413.91;3941937;32;15732011;-70
2021/12/08 14:21:09;;;;;;;0.73;0.30;;;;;;;13.83;47.57;97451.31;3976774;32;15025988;-69
2021/12/08 14:23:38;;;;;;;2.35;0.40;;;;;;;13.83;47.57;97451.31;4428353;32;20111;-69
2021/12/08 14:28:43;;;;;;;2.28;0.85;;;;;;;14.27;46.43;97482.97;3985638;31;15024634;-67
2021/12/08 14:31:28;;;;;;;1.48;0.40;;;;;;;14.27;46.43;97482.97;4456774;32;20966;-67
2021/12/08 14:36:53;;;;;;;1.67;0.75;;;;;;;13.88;46.89;97540.91;3980640;31;15022799;-67
2021/12/08 14:39:46;;;;;;;4.12;0.68;;;;;;;13.88;46.89;97540.91;4444659;32;20033;-67